sensor_id;sensor_type;location;lat;lon;timestamp;pressure;altitude;pressure_sealevel;temperature;humidity
46876;BME280;32866;50.160;14.768;2024-03-07T00:02:06;99926.75;;;3.19;100.00
46876;BME280;32866;50.160;14.768;2024-03-07T00:04:32;99928.25;;;3.16;100.00
46876;BME280;32866;50.160;14.768;2024-03-07T00:06:58;99948.28;;;3.08;100.00
46876;BME280;32866;50.160;14.768;2024-03-07T00:09:24;99994.25;;;3.42;100.00
46876;BME280;32866;50.160;14.768;2024-03-07T00:11:50;99988.78;;;3.34;100.00
46876;BME280;32866;50.160;14.768;2024-03-07T00:14:16;99993.44;;;3.38;100.00
46876;BME280;32866;50.160;14.768;2024-03-07T00:16:42;99942.13;;;3.11;100.00
46876;BME280;32866;50.160;14.768;2024-03-07T00:19:08;99943.28;;;3.10;100.00
46876;BME280;32866;50.160;14.768;2024-03-07T00:21:34;99957.25;;;3.12;100.00
46876;BME280;32866;50.160;14.768;2024-03-07T00:24:00;99963.78;;;3.07;100.00
46876;BME280;32866;50.160;14.768;2024-03-07T00:26:26;99952.94;;;3.07;100.00
46876;BME280;32866;50.160;14.768;2024-03-07T00:28:52;99990.31;;;3.32;100.00
46876;BME280;32866;50.160;14.768;2024-03-07T00:31:24;99976.78;;;3.32;100.00
46876;BME280;32866;50.160;14.768;2024-03-07T00:33:50;99963.09;;;3.18;100.00
46876;BME280;32866;50.160;14.768;2024-03-07T00:36:16;99985.66;;;3.32;100.00
46876;BME280;32866;50.160;14.768;2024-03-07T00:38:42;99982.53;;;3.27;100.00
46876;BME280;32866;50.160;14.768;2024-03-07T00:41:08;99933.34;;;2.80;100.00
46876;BME280;32866;50.160;14.768;2024-03-07T00:43:35;99924.06;;;2.81;100.00
46876;BME280;32866;50.160;14.768;2024-03-07T00:46:02;99925.59;;;2.78;100.00
46876;BME280;32866;50.160;14.768;2024-03-07T00:48:27;99935.56;;;2.71;100.00
46876;BME280;32866;50.160;14.768;2024-03-07T00:50:55;99985.47;;;3.11;100.00
46876;BME280;32866;50.160;14.768;2024-03-07T00:53:21;99925.94;;;2.73;100.00
46876;BME280;32866;50.160;14.768;2024-03-07T00:55:47;99937.53;;;2.74;100.00
46876;BME280;32866;50.160;14.768;2024-03-07T00:58:14;99984.81;;;3.25;100.00
46876;BME280;32866;50.160;14.768;2024-03-07T01:00:40;99976.13;;;3.05;100.00
46876;BME280;32866;50.160;14.768;2024-03-07T01:03:09;99945.34;;;2.83;100.00
46876;BME280;32866;50.160;14.768;2024-03-07T01:05:40;99973.53;;;3.15;100.00
46876;BME280;32866;50.160;14.768;2024-03-07T01:08:06;99928.06;;;2.94;100.00
46876;BME280;32866;50.160;14.768;2024-03-07T01:10:32;99915.50;;;2.75;100.00
46876;BME280;32866;50.160;14.768;2024-03-07T01:12:58;99919.38;;;2.78;100.00
46876;BME280;32866;50.160;14.768;2024-03-07T01:15:31;99965.09;;;3.24;100.00
46876;BME280;32866;50.160;14.768;2024-03-07T01:17:58;99928.78;;;2.88;100.00
46876;BME280;32866;50.160;14.768;2024-03-07T01:20:24;99953.72;;;3.08;100.00
46876;BME280;32866;50.160;14.768;2024-03-07T01:22:53;99906.16;;;2.69;100.00
46876;BME280;32866;50.160;14.768;2024-03-07T01:25:19;99959.84;;;3.01;100.00
46876;BME280;32866;50.160;14.768;2024-03-07T01:27:47;99957.44;;;2.92;100.00
46876;BME280;32866;50.160;14.768;2024-03-07T01:30:13;99962.09;;;2.92;100.00
46876;BME280;32866;50.160;14.768;2024-03-07T01:32:39;99896.97;;;2.40;100.00
46876;BME280;32866;50.160;14.768;2024-03-07T01:35:05;99944.81;;;2.70;100.00
46876;BME280;32866;50.160;14.768;2024-03-07T01:37:33;99905.69;;;2.26;100.00
46876;BME280;32866;50.160;14.768;2024-03-07T01:39:59;99908.53;;;2.03;100.00
46876;BME280;32866;50.160;14.768;2024-03-07T01:42:25;99926.41;;;2.11;100.00
46876;BME280;32866;50.160;14.768;2024-03-07T01:44:51;99897.06;;;1.83;100.00
46876;BME280;32866;50.160;14.768;2024-03-07T01:47:17;99964.31;;;2.15;100.00
46876;BME280;32866;50.160;14.768;2024-03-07T01:49:43;99897.13;;;1.60;100.00
46876;BME280;32866;50.160;14.768;2024-03-07T01:52:11;99917.66;;;1.64;100.00
46876;BME280;32866;50.160;14.768;2024-03-07T01:54:37;99960.81;;;1.88;100.00
46876;BME280;32866;50.160;14.768;2024-03-07T01:57:04;99955.81;;;1.86;100.00
46876;BME280;32866;50.160;14.768;2024-03-07T01:59:32;99948.75;;;1.78;100.00
46876;BME280;32866;50.160;14.768;2024-03-07T02:01:59;99957.56;;;1.75;100.00
46876;BME280;32866;50.160;14.768;2024-03-07T02:04:28;99934.25;;;1.63;100.00
46876;BME280;32866;50.160;14.768;2024-03-07T02:06:54;99893.72;;;1.36;100.00
46876;BME280;32866;50.160;14.768;2024-03-07T02:09:21;99888.41;;;1.43;100.00
46876;BME280;32866;50.160;14.768;2024-03-07T02:11:49;99931.28;;;1.72;100.00
46876;BME280;32866;50.160;14.768;2024-03-07T02:14:15;99947.28;;;2.14;100.00
46876;BME280;32866;50.160;14.768;2024-03-07T02:16:42;99957.06;;;2.26;100.00
46876;BME280;32866;50.160;14.768;2024-03-07T02:19:14;99884.53;;;1.98;100.00
46876;BME280;32866;50.160;14.768;2024-03-07T02:21:41;99942.69;;;2.49;100.00
46876;BME280;32866;50.160;14.768;2024-03-07T02:24:07;99906.53;;;2.30;100.00
46876;BME280;32866;50.160;14.768;2024-03-07T02:26:34;99946.31;;;2.64;100.00
46876;BME280;32866;50.160;14.768;2024-03-07T02:29:00;99947.09;;;2.64;100.00
46876;BME280;32866;50.160;14.768;2024-03-07T02:31:27;99873.94;;;2.19;100.00
46876;BME280;32866;50.160;14.768;2024-03-07T02:34:01;99933.69;;;2.41;100.00
46876;BME280;32866;50.160;14.768;2024-03-07T02:36:28;99941.69;;;2.64;100.00
46876;BME280;32866;50.160;14.768;2024-03-07T02:38:54;99877.19;;;2.32;100.00
46876;BME280;32866;50.160;14.768;2024-03-07T02:41:20;99920.91;;;2.72;100.00
46876;BME280;32866;50.160;14.768;2024-03-07T02:43:46;99871.06;;;2.39;100.00
46876;BME280;32866;50.160;14.768;2024-03-07T02:46:12;99921.00;;;2.83;100.00
46876;BME280;32866;50.160;14.768;2024-03-07T02:48:38;99924.19;;;2.92;100.00
46876;BME280;32866;50.160;14.768;2024-03-07T02:51:05;99926.44;;;2.86;100.00
46876;BME280;32866;50.160;14.768;2024-03-07T02:53:34;99925.22;;;2.80;100.00
46876;BME280;32866;50.160;14.768;2024-03-07T02:56:00;99928.00;;;2.87;100.00
46876;BME280;32866;50.160;14.768;2024-03-07T02:58:26;99927.59;;;2.85;100.00
46876;BME280;32866;50.160;14.768;2024-03-07T03:00:59;99927.13;;;2.79;100.00
46876;BME280;32866;50.160;14.768;2024-03-07T03:03:29;99929.47;;;2.81;100.00
46876;BME280;32866;50.160;14.768;2024-03-07T03:05:59;99922.97;;;2.86;100.00
46876;BME280;32866;50.160;14.768;2024-03-07T03:08:25;99923.38;;;2.91;100.00
46876;BME280;32866;50.160;14.768;2024-03-07T03:10:51;99926.06;;;2.88;100.00
46876;BME280;32866;50.160;14.768;2024-03-07T03:13:17;99926.88;;;2.88;100.00
46876;BME280;32866;50.160;14.768;2024-03-07T03:15:43;99913.22;;;2.77;100.00
46876;BME280;32866;50.160;14.768;2024-03-07T03:18:09;99899.81;;;2.54;100.00
46876;BME280;32866;50.160;14.768;2024-03-07T03:20:38;99886.16;;;2.40;100.00
46876;BME280;32866;50.160;14.768;2024-03-07T03:23:05;99931.03;;;2.82;100.00
46876;BME280;32866;50.160;14.768;2024-03-07T03:25:32;99927.97;;;2.84;100.00
46876;BME280;32866;50.160;14.768;2024-03-07T03:28:01;99924.06;;;2.81;100.00
46876;BME280;32866;50.160;14.768;2024-03-07T03:30:29;99929.50;;;2.85;100.00
46876;BME280;32866;50.160;14.768;2024-03-07T03:32:55;99928.03;;;2.91;100.00
46876;BME280;32866;50.160;14.768;2024-03-07T03:35:21;99861.53;;;2.52;100.00
46876;BME280;32866;50.160;14.768;2024-03-07T03:37:47;99895.31;;;2.66;100.00
46876;BME280;32866;50.160;14.768;2024-03-07T03:40:13;99923.47;;;2.99;100.00
46876;BME280;32866;50.160;14.768;2024-03-07T03:42:40;99885.63;;;2.65;100.00
46876;BME280;32866;50.160;14.768;2024-03-07T03:45:07;99921.16;;;3.01;100.00
46876;BME280;32866;50.160;14.768;2024-03-07T03:47:35;99923.88;;;3.01;100.00
46876;BME280;32866;50.160;14.768;2024-03-07T03:50:05;99920.41;;;3.04;100.00
46876;BME280;32866;50.160;14.768;2024-03-07T03:52:32;99920.34;;;2.96;100.00
46876;BME280;32866;50.160;14.768;2024-03-07T03:54:58;99924.97;;;2.96;100.00
46876;BME280;32866;50.160;14.768;2024-03-07T03:57:25;99920.75;;;2.99;100.00
46876;BME280;32866;50.160;14.768;2024-03-07T03:59:52;99910.06;;;2.72;100.00
46876;BME280;32866;50.160;14.768;2024-03-07T04:02:18;99900.78;;;2.73;100.00
46876;BME280;32866;50.160;14.768;2024-03-07T04:04:44;99922.28;;;2.96;100.00
46876;BME280;32866;50.160;14.768;2024-03-07T04:07:14;99914.56;;;2.98;100.00
46876;BME280;32866;50.160;14.768;2024-03-07T04:09:43;99922.69;;;3.02;100.00
46876;BME280;32866;50.160;14.768;2024-03-07T04:12:09;99918.06;;;2.99;100.00
46876;BME280;32866;50.160;14.768;2024-03-07T04:14:37;99909.97;;;3.02;100.00
46876;BME280;32866;50.160;14.768;2024-03-07T04:17:04;99873.63;;;2.62;100.00
46876;BME280;32866;50.160;14.768;2024-03-07T04:19:35;99886.13;;;2.74;100.00
46876;BME280;32866;50.160;14.768;2024-03-07T04:22:02;99918.84;;;3.03;100.00
46876;BME280;32866;50.160;14.768;2024-03-07T04:24:30;99870.91;;;2.62;100.00
46876;BME280;32866;50.160;14.768;2024-03-07T04:27:02;99919.63;;;3.03;100.00
46876;BME280;32866;50.160;14.768;2024-03-07T04:29:30;99927.38;;;3.05;100.00
46876;BME280;32866;50.160;14.768;2024-03-07T04:31:56;99924.28;;;3.03;100.00
46876;BME280;32866;50.160;14.768;2024-03-07T04:34:22;99921.94;;;3.01;100.00
46876;BME280;32866;50.160;14.768;2024-03-07T04:36:48;99871.59;;;2.52;100.00
46876;BME280;32866;50.160;14.768;2024-03-07T04:39:14;99875.41;;;2.47;100.00
46876;BME280;32866;50.160;14.768;2024-03-07T04:41:51;99897.94;;;2.58;100.00
46876;BME280;32866;50.160;14.768;2024-03-07T04:44:19;99930.72;;;2.87;100.00
46876;BME280;32866;50.160;14.768;2024-03-07T04:46:48;99912.44;;;2.77;100.00
46876;BME280;32866;50.160;14.768;2024-03-07T04:49:15;99867.25;;;2.44;100.00
46876;BME280;32866;50.160;14.768;2024-03-07T04:51:41;99929.13;;;2.86;100.00
46876;BME280;32866;50.160;14.768;2024-03-07T04:54:07;99906.84;;;2.59;100.00
46876;BME280;32866;50.160;14.768;2024-03-07T04:56:33;99864.09;;;2.38;100.00
46876;BME280;32866;50.160;14.768;2024-03-07T04:58:59;99931.81;;;2.83;100.00
46876;BME280;32866;50.160;14.768;2024-03-07T05:01:25;99921.56;;;2.62;100.00
46876;BME280;32866;50.160;14.768;2024-03-07T05:03:51;99936.53;;;2.89;100.00
46876;BME280;32866;50.160;14.768;2024-03-07T05:06:18;99901.59;;;2.77;100.00
46876;BME280;32866;50.160;14.768;2024-03-07T05:08:44;99896.88;;;2.67;100.00
46876;BME280;32866;50.160;14.768;2024-03-07T05:11:10;99939.72;;;2.99;100.00
46876;BME280;32866;50.160;14.768;2024-03-07T05:13:36;99887.13;;;2.58;100.00
46876;BME280;32866;50.160;14.768;2024-03-07T05:16:03;99938.53;;;2.96;100.00
46876;BME280;32866;50.160;14.768;2024-03-07T05:18:29;99944.34;;;2.98;100.00
46876;BME280;32866;50.160;14.768;2024-03-07T05:20:54;99895.22;;;2.55;100.00
46876;BME280;32866;50.160;14.768;2024-03-07T05:23:20;99899.91;;;2.62;100.00
46876;BME280;32866;50.160;14.768;2024-03-07T05:25:46;99910.88;;;2.76;100.00
46876;BME280;32866;50.160;14.768;2024-03-07T05:28:14;99942.84;;;3.04;100.00
46876;BME280;32866;50.160;14.768;2024-03-07T05:30:39;99961.09;;;3.11;100.00
46876;BME280;32866;50.160;14.768;2024-03-07T05:33:05;99959.97;;;3.12;100.00
46876;BME280;32866;50.160;14.768;2024-03-07T05:35:32;99911.28;;;2.78;100.00
46876;BME280;32866;50.160;14.768;2024-03-07T05:37:58;99905.81;;;2.74;100.00
46876;BME280;32866;50.160;14.768;2024-03-07T05:40:25;99894.63;;;2.76;100.00
46876;BME280;32866;50.160;14.768;2024-03-07T05:42:51;99963.47;;;3.16;100.00
46876;BME280;32866;50.160;14.768;2024-03-07T05:45:17;99963.84;;;3.18;100.00
46876;BME280;32866;50.160;14.768;2024-03-07T05:47:43;99967.75;;;3.21;100.00
46876;BME280;32866;50.160;14.768;2024-03-07T05:50:09;99968.50;;;3.18;100.00
46876;BME280;32866;50.160;14.768;2024-03-07T05:52:36;99967.66;;;3.10;100.00
46876;BME280;32866;50.160;14.768;2024-03-07T05:55:05;99942.44;;;2.99;100.00
46876;BME280;32866;50.160;14.768;2024-03-07T05:57:32;99975.03;;;3.13;100.00
46876;BME280;32866;50.160;14.768;2024-03-07T05:59:58;99968.31;;;2.96;100.00
46876;BME280;32866;50.160;14.768;2024-03-07T06:02:24;99967.72;;;3.13;100.00
46876;BME280;32866;50.160;14.768;2024-03-07T06:04:50;99931.75;;;2.75;100.00
46876;BME280;32866;50.160;14.768;2024-03-07T06:07:16;99972.78;;;3.19;100.00
46876;BME280;32866;50.160;14.768;2024-03-07T06:09:42;99914.03;;;2.82;100.00
46876;BME280;32866;50.160;14.768;2024-03-07T06:12:09;99947.38;;;2.93;100.00
46876;BME280;32866;50.160;14.768;2024-03-07T06:14:35;99958.75;;;3.09;100.00
46876;BME280;32866;50.160;14.768;2024-03-07T06:17:01;99980.19;;;3.25;100.00
46876;BME280;32866;50.160;14.768;2024-03-07T06:19:27;99986.41;;;3.29;100.00
46876;BME280;32866;50.160;14.768;2024-03-07T06:21:53;99952.09;;;3.00;100.00
46876;BME280;32866;50.160;14.768;2024-03-07T06:26:55;99990.44;;;3.46;100.00
46876;BME280;32866;50.160;14.768;2024-03-07T06:29:29;99989.69;;;3.53;100.00
46876;BME280;32866;50.160;14.768;2024-03-07T06:31:55;99992.50;;;3.64;100.00
46876;BME280;32866;50.160;14.768;2024-03-07T06:34:20;99996.84;;;3.76;100.00
46876;BME280;32866;50.160;14.768;2024-03-07T06:36:46;99996.91;;;3.86;100.00
46876;BME280;32866;50.160;14.768;2024-03-07T06:39:12;99995.44;;;3.96;100.00
46876;BME280;32866;50.160;14.768;2024-03-07T06:41:39;99998.56;;;4.05;100.00
46876;BME280;32866;50.160;14.768;2024-03-07T06:44:05;100002.53;;;4.19;100.00
46876;BME280;32866;50.160;14.768;2024-03-07T06:46:31;99995.22;;;4.26;100.00
46876;BME280;32866;50.160;14.768;2024-03-07T06:48:59;100004.94;;;4.27;100.00
46876;BME280;32866;50.160;14.768;2024-03-07T06:51:25;99998.72;;;4.31;100.00
46876;BME280;32866;50.160;14.768;2024-03-07T06:53:50;100004.19;;;4.38;100.00
46876;BME280;32866;50.160;14.768;2024-03-07T06:56:17;100004.97;;;4.38;100.00
46876;BME280;32866;50.160;14.768;2024-03-07T06:58:43;99952.84;;;4.00;100.00
46876;BME280;32866;50.160;14.768;2024-03-07T07:01:12;100002.66;;;4.44;100.00
46876;BME280;32866;50.160;14.768;2024-03-07T07:03:41;99955.25;;;4.16;100.00
46876;BME280;32866;50.160;14.768;2024-03-07T07:06:09;99984.41;;;4.37;100.00
46876;BME280;32866;50.160;14.768;2024-03-07T07:08:36;100004.22;;;4.49;100.00
46876;BME280;32866;50.160;14.768;2024-03-07T07:11:02;99996.91;;;4.53;100.00
46876;BME280;32866;50.160;14.768;2024-03-07T07:13:30;99985.22;;;4.49;100.00
46876;BME280;32866;50.160;14.768;2024-03-07T07:15:56;99965.81;;;4.36;100.00
46876;BME280;32866;50.160;14.768;2024-03-07T07:18:22;99957.63;;;4.25;100.00
46876;BME280;32866;50.160;14.768;2024-03-07T07:20:49;99994.97;;;4.60;100.00
46876;BME280;32866;50.160;14.768;2024-03-07T07:23:18;99973.63;;;4.55;100.00
46876;BME280;32866;50.160;14.768;2024-03-07T07:25:44;99994.97;;;4.64;100.00
46876;BME280;32866;50.160;14.768;2024-03-07T07:28:10;100015.25;;;4.85;100.00
46876;BME280;32866;50.160;14.768;2024-03-07T07:30:37;99960.81;;;4.56;100.00
46876;BME280;32866;50.160;14.768;2024-03-07T07:33:03;99997.44;;;5.01;100.00
46876;BME280;32866;50.160;14.768;2024-03-07T07:35:29;100005.22;;;5.14;100.00
46876;BME280;32866;50.160;14.768;2024-03-07T07:37:55;100011.44;;;5.32;100.00
46876;BME280;32866;50.160;14.768;2024-03-07T07:40:22;100007.56;;;5.48;100.00
46876;BME280;32866;50.160;14.768;2024-03-07T07:42:49;100007.97;;;5.61;100.00
46876;BME280;32866;50.160;14.768;2024-03-07T07:45:18;100004.44;;;5.78;100.00
46876;BME280;32866;50.160;14.768;2024-03-07T07:47:47;100000.16;;;6.20;100.00
46876;BME280;32866;50.160;14.768;2024-03-07T07:50:16;99995.44;;;6.35;100.00
46876;BME280;32866;50.160;14.768;2024-03-07T07:52:48;99986.44;;;6.42;100.00
46876;BME280;32866;50.160;14.768;2024-03-07T07:55:16;100005.03;;;6.65;100.00
46876;BME280;32866;50.160;14.768;2024-03-07T07:57:44;100006.56;;;6.73;100.00
46876;BME280;32866;50.160;14.768;2024-03-07T08:00:15;100003.25;;;7.11;100.00
46876;BME280;32866;50.160;14.768;2024-03-07T08:02:55;100002.81;;;7.19;100.00
46876;BME280;32866;50.160;14.768;2024-03-07T08:05:23;100004.25;;;7.35;100.00
46876;BME280;32866;50.160;14.768;2024-03-07T08:07:50;100001.53;;;7.35;100.00
46876;BME280;32866;50.160;14.768;2024-03-07T08:10:20;100001.34;;;7.56;100.00
46876;BME280;32866;50.160;14.768;2024-03-07T08:12:46;100001.75;;;8.00;100.00
46876;BME280;32866;50.160;14.768;2024-03-07T08:15:12;100000.97;;;8.72;100.00
46876;BME280;32866;50.160;14.768;2024-03-07T08:17:46;100008.19;;;9.13;100.00
46876;BME280;32866;50.160;14.768;2024-03-07T08:20:17;100005.53;;;9.09;100.00
46876;BME280;32866;50.160;14.768;2024-03-07T08:22:44;99998.31;;;8.96;100.00
46876;BME280;32866;50.160;14.768;2024-03-07T08:25:10;100012.94;;;8.82;100.00
46876;BME280;32866;50.160;14.768;2024-03-07T08:27:38;100003.41;;;8.63;100.00
46876;BME280;32866;50.160;14.768;2024-03-07T08:30:04;100006.44;;;8.72;100.00
46876;BME280;32866;50.160;14.768;2024-03-07T08:32:32;100009.94;;;9.03;100.00
46876;BME280;32866;50.160;14.768;2024-03-07T08:35:00;99946.28;;;8.41;100.00
46876;BME280;32866;50.160;14.768;2024-03-07T08:37:27;99990.03;;;8.38;100.00
46876;BME280;32866;50.160;14.768;2024-03-07T08:39:53;99999.25;;;8.16;100.00
46876;BME280;32866;50.160;14.768;2024-03-07T08:42:19;99963.03;;;7.74;100.00
46876;BME280;32866;50.160;14.768;2024-03-07T08:44:45;100003.94;;;7.74;100.00
46876;BME280;32866;50.160;14.768;2024-03-07T08:47:11;99958.41;;;7.22;100.00
46876;BME280;32866;50.160;14.768;2024-03-07T08:49:37;99991.06;;;7.26;100.00
46876;BME280;32866;50.160;14.768;2024-03-07T08:52:03;100001.63;;;7.17;100.00
46876;BME280;32866;50.160;14.768;2024-03-07T08:54:29;99991.25;;;7.01;100.00
46876;BME280;32866;50.160;14.768;2024-03-07T08:56:55;99970.00;;;6.71;100.00
46876;BME280;32866;50.160;14.768;2024-03-07T08:59:21;100015.88;;;6.79;100.00
46876;BME280;32866;50.160;14.768;2024-03-07T09:01:48;99985.94;;;6.72;100.00
46876;BME280;32866;50.160;14.768;2024-03-07T09:04:14;99989.03;;;6.78;100.00
46876;BME280;32866;50.160;14.768;2024-03-07T09:06:43;99997.81;;;7.11;100.00
46876;BME280;32866;50.160;14.768;2024-03-07T09:09:12;99972.50;;;7.06;100.00
46876;BME280;32866;50.160;14.768;2024-03-07T09:11:39;100000.34;;;7.36;100.00
46876;BME280;32866;50.160;14.768;2024-03-07T09:14:07;99948.09;;;6.92;100.00
46876;BME280;32866;50.160;14.768;2024-03-07T09:16:35;99992.16;;;7.39;100.00
46876;BME280;32866;50.160;14.768;2024-03-07T09:19:01;99952.69;;;7.02;100.00
46876;BME280;32866;50.160;14.768;2024-03-07T09:21:28;99995.31;;;7.34;100.00
46876;BME280;32866;50.160;14.768;2024-03-07T09:23:55;99958.50;;;7.04;100.00
46876;BME280;32866;50.160;14.768;2024-03-07T09:26:21;99956.81;;;7.25;100.00
46876;BME280;32866;50.160;14.768;2024-03-07T09:28:47;99981.94;;;7.51;100.00
46876;BME280;32866;50.160;14.768;2024-03-07T09:31:16;99950.81;;;7.45;100.00
46876;BME280;32866;50.160;14.768;2024-03-07T09:33:42;99968.78;;;7.38;99.83
46876;BME280;32866;50.160;14.768;2024-03-07T09:36:08;99978.28;;;7.19;100.00
46876;BME280;32866;50.160;14.768;2024-03-07T09:38:34;99995.13;;;7.52;100.00
46876;BME280;32866;50.160;14.768;2024-03-07T09:41:00;99982.03;;;7.36;99.33
46876;BME280;32866;50.160;14.768;2024-03-07T09:43:26;100001.66;;;7.69;100.00
46876;BME280;32866;50.160;14.768;2024-03-07T09:45:55;99999.34;;;7.64;98.61
46876;BME280;32866;50.160;14.768;2024-03-07T09:48:22;99961.69;;;7.48;100.00
46876;BME280;32866;50.160;14.768;2024-03-07T09:50:52;100001.41;;;7.53;100.00
46876;BME280;32866;50.160;14.768;2024-03-07T09:53:20;99986.38;;;7.75;100.00
46876;BME280;32866;50.160;14.768;2024-03-07T09:55:47;99958.84;;;7.59;100.00
46876;BME280;32866;50.160;14.768;2024-03-07T09:58:17;99971.69;;;7.62;100.00
46876;BME280;32866;50.160;14.768;2024-03-07T10:00:46;99995.53;;;7.99;100.00
46876;BME280;32866;50.160;14.768;2024-03-07T10:03:18;99937.19;;;7.86;100.00
46876;BME280;32866;50.160;14.768;2024-03-07T10:05:46;99998.44;;;8.16;100.00
46876;BME280;32866;50.160;14.768;2024-03-07T10:08:12;99995.25;;;8.25;100.00
46876;BME280;32866;50.160;14.768;2024-03-07T10:10:39;99997.34;;;8.48;99.96
46876;BME280;32866;50.160;14.768;2024-03-07T10:13:05;99967.13;;;8.28;99.16
46876;BME280;32866;50.160;14.768;2024-03-07T10:15:34;100001.59;;;8.52;97.40
46876;BME280;32866;50.160;14.768;2024-03-07T10:17:59;100001.97;;;8.85;98.19
46876;BME280;32866;50.160;14.768;2024-03-07T10:20:28;100000.88;;;8.79;96.42
46876;BME280;32866;50.160;14.768;2024-03-07T10:22:54;99981.66;;;8.56;94.99
46876;BME280;32866;50.160;14.768;2024-03-07T10:25:22;99998.31;;;8.30;96.86
46876;BME280;32866;50.160;14.768;2024-03-07T10:27:51;99991.06;;;8.16;97.82
46876;BME280;32866;50.160;14.768;2024-03-07T10:30:17;100007.06;;;7.73;98.16
46876;BME280;32866;50.160;14.768;2024-03-07T10:32:46;100006.09;;;7.49;99.79
46876;BME280;32866;50.160;14.768;2024-03-07T10:35:12;100004.59;;;7.40;100.00
46876;BME280;32866;50.160;14.768;2024-03-07T10:37:40;100000.22;;;7.50;100.00
46876;BME280;32866;50.160;14.768;2024-03-07T10:40:06;99984.81;;;7.29;100.00
46876;BME280;32866;50.160;14.768;2024-03-07T10:42:45;99996.81;;;7.42;100.00
46876;BME280;32866;50.160;14.768;2024-03-07T10:45:14;99956.56;;;7.01;100.00
46876;BME280;32866;50.160;14.768;2024-03-07T10:47:43;99994.47;;;7.41;100.00
46876;BME280;32866;50.160;14.768;2024-03-07T10:58:44;99999.56;;;6.76;100.00
46876;BME280;32866;50.160;14.768;2024-03-07T11:01:13;100000.34;;;6.73;100.00
46876;BME280;32866;50.160;14.768;2024-03-07T11:03:40;100002.72;;;6.67;100.00
46876;BME280;32866;50.160;14.768;2024-03-07T11:06:08;100001.16;;;6.66;100.00
46876;BME280;32866;50.160;14.768;2024-03-07T11:08:37;99993.38;;;6.61;100.00
46876;BME280;32866;50.160;14.768;2024-03-07T11:11:04;100003.09;;;6.65;100.00
46876;BME280;32866;50.160;14.768;2024-03-07T11:13:30;99992.59;;;6.67;100.00
46876;BME280;32866;50.160;14.768;2024-03-07T11:15:57;100001.91;;;6.74;100.00
46876;BME280;32866;50.160;14.768;2024-03-07T11:18:25;99989.78;;;6.78;100.00
46876;BME280;32866;50.160;14.768;2024-03-07T11:20:52;100003.38;;;6.89;100.00
46876;BME280;32866;50.160;14.768;2024-03-07T11:23:27;99994.31;;;7.06;100.00
46876;BME280;32866;50.160;14.768;2024-03-07T11:26:05;99975.94;;;7.18;100.00
46876;BME280;32866;50.160;14.768;2024-03-07T11:28:40;99986.59;;;7.50;100.00
46876;BME280;32866;50.160;14.768;2024-03-07T11:31:13;99981.69;;;7.79;100.00
46876;BME280;32866;50.160;14.768;2024-03-07T11:33:42;99987.81;;;7.87;100.00
46876;BME280;32866;50.160;14.768;2024-03-07T11:36:42;99982.91;;;8.09;100.00
46876;BME280;32866;50.160;14.768;2024-03-07T11:39:47;99977.72;;;8.22;100.00
46876;BME280;32866;50.160;14.768;2024-03-07T11:42:26;99980.63;;;8.08;100.00
46876;BME280;32866;50.160;14.768;2024-03-07T11:44:52;99979.09;;;8.03;100.00
46876;BME280;32866;50.160;14.768;2024-03-07T11:47:34;99969.00;;;8.00;100.00
46876;BME280;32866;50.160;14.768;2024-03-07T11:50:01;99978.53;;;7.81;100.00
46876;BME280;32866;50.160;14.768;2024-03-07T11:52:28;99965.19;;;7.90;100.00
46876;BME280;32866;50.160;14.768;2024-03-07T11:54:54;99971.13;;;7.82;100.00
46876;BME280;32866;50.160;14.768;2024-03-07T11:57:29;99980.84;;;7.86;100.00
46876;BME280;32866;50.160;14.768;2024-03-07T12:00:02;99970.41;;;7.74;100.00
46876;BME280;32866;50.160;14.768;2024-03-07T12:02:34;99973.19;;;7.70;100.00
46876;BME280;32866;50.160;14.768;2024-03-07T12:05:00;99973.75;;;7.51;100.00
46876;BME280;32866;50.160;14.768;2024-03-07T12:07:26;99973.69;;;7.58;100.00
46876;BME280;32866;50.160;14.768;2024-03-07T12:09:52;99987.19;;;7.72;100.00
46876;BME280;32866;50.160;14.768;2024-03-07T12:12:21;99982.00;;;7.85;100.00
46876;BME280;32866;50.160;14.768;2024-03-07T12:14:47;99975.03;;;7.80;100.00
46876;BME280;32866;50.160;14.768;2024-03-07T12:17:14;99967.09;;;7.52;100.00
46876;BME280;32866;50.160;14.768;2024-03-07T12:19:43;99972.63;;;7.45;100.00
46876;BME280;32866;50.160;14.768;2024-03-07T12:22:09;99975.72;;;7.47;100.00
46876;BME280;32866;50.160;14.768;2024-03-07T12:24:41;99964.91;;;7.32;100.00
46876;BME280;32866;50.160;14.768;2024-03-07T12:27:09;99969.34;;;7.12;100.00
46876;BME280;32866;50.160;14.768;2024-03-07T12:29:37;99956.56;;;7.01;100.00
46876;BME280;32866;50.160;14.768;2024-03-07T12:32:09;99968.97;;;7.13;100.00
46876;BME280;32866;50.160;14.768;2024-03-07T12:34:48;99955.00;;;7.08;100.00
46876;BME280;32866;50.160;14.768;2024-03-07T12:37:14;99966.13;;;7.28;100.00
46876;BME280;32866;50.160;14.768;2024-03-07T12:39:42;99967.59;;;7.39;100.00
46876;BME280;32866;50.160;14.768;2024-03-07T12:42:24;99975.72;;;7.47;100.00
46876;BME280;32866;50.160;14.768;2024-03-07T12:44:50;99972.91;;;7.54;100.00
46876;BME280;32866;50.160;14.768;2024-03-07T12:47:16;99969.84;;;7.52;100.00
46876;BME280;32866;50.160;14.768;2024-03-07T12:49:42;99969.03;;;7.55;100.00
46876;BME280;32866;50.160;14.768;2024-03-07T12:52:09;99914.97;;;6.97;100.00
46876;BME280;32866;50.160;14.768;2024-03-07T12:54:35;99961.78;;;7.37;100.00
46876;BME280;32866;50.160;14.768;2024-03-07T12:57:09;99963.34;;;7.35;100.00
46876;BME280;32866;50.160;14.768;2024-03-07T12:59:37;99975.94;;;7.18;100.00
46876;BME280;32866;50.160;14.768;2024-03-07T13:02:09;99954.44;;;7.27;100.00